sensor_id;sensor_type;location;lat;lon;timestamp;temperature;humidity
59973;DHT22;55298;-36.624;-64.282;2023-06-04T00:00:23;15.10;99.00
59973;DHT22;55298;-36.624;-64.282;2023-06-04T00:02:51;15.00;99.20
59973;DHT22;55298;-36.624;-64.282;2023-06-04T00:05:19;15.10;99.40
59973;DHT22;55298;-36.624;-64.282;2023-06-04T00:07:48;14.90;99.90
59973;DHT22;55298;-36.624;-64.282;2023-06-04T00:10:16;15.10;99.90
59973;DHT22;55298;-36.624;-64.282;2023-06-04T00:12:43;14.90;99.90
59973;DHT22;55298;-36.624;-64.282;2023-06-04T00:15:12;14.90;99.90
59973;DHT22;55298;-36.624;-64.282;2023-06-04T00:17:40;14.80;99.90
59973;DHT22;55298;-36.624;-64.282;2023-06-04T00:20:08;14.80;99.90
59973;DHT22;55298;-36.624;-64.282;2023-06-04T00:22:36;14.80;99.90
59973;DHT22;55298;-36.624;-64.282;2023-06-04T00:25:05;14.90;99.90
59973;DHT22;55298;-36.624;-64.282;2023-06-04T00:27:33;14.80;99.90
59973;DHT22;55298;-36.624;-64.282;2023-06-04T00:30:00;14.80;99.90
59973;DHT22;55298;-36.624;-64.282;2023-06-04T00:32:28;14.80;99.90
59973;DHT22;55298;-36.624;-64.282;2023-06-04T00:34:57;14.80;99.90
59973;DHT22;55298;-36.624;-64.282;2023-06-04T00:37:26;14.80;99.90
59973;DHT22;55298;-36.624;-64.282;2023-06-04T00:39:55;14.70;99.90
59973;DHT22;55298;-36.624;-64.282;2023-06-04T00:42:22;14.70;99.90
59973;DHT22;55298;-36.624;-64.282;2023-06-04T00:44:50;14.60;99.90
59973;DHT22;55298;-36.624;-64.282;2023-06-04T00:47:19;14.60;99.90
59973;DHT22;55298;-36.624;-64.282;2023-06-04T00:49:48;14.60;99.90
59973;DHT22;55298;-36.624;-64.282;2023-06-04T00:52:16;14.60;99.90
59973;DHT22;55298;-36.624;-64.282;2023-06-04T00:54:44;14.60;99.90
59973;DHT22;55298;-36.624;-64.282;2023-06-04T00:57:11;14.60;99.90
59973;DHT22;55298;-36.624;-64.282;2023-06-04T00:59:40;14.50;99.90
59973;DHT22;55298;-36.624;-64.282;2023-06-04T01:02:19;14.50;99.90
59973;DHT22;55298;-36.624;-64.282;2023-06-04T01:04:57;14.50;99.90
59973;DHT22;55298;-36.624;-64.282;2023-06-04T01:07:28;14.50;99.90
59973;DHT22;55298;-36.624;-64.282;2023-06-04T01:09:56;14.50;99.90
59973;DHT22;55298;-36.624;-64.282;2023-06-04T01:12:23;14.50;99.90
59973;DHT22;55298;-36.624;-64.282;2023-06-04T01:14:51;14.50;99.90
59973;DHT22;55298;-36.624;-64.282;2023-06-04T01:17:31;14.40;99.90
59973;DHT22;55298;-36.624;-64.282;2023-06-04T01:20:16;14.30;99.90
59973;DHT22;55298;-36.624;-64.282;2023-06-04T01:25:42;14.30;99.90
59973;DHT22;55298;-36.624;-64.282;2023-06-04T01:28:12;14.30;99.90
59973;DHT22;55298;-36.624;-64.282;2023-06-04T01:30:44;14.30;99.90
59973;DHT22;55298;-36.624;-64.282;2023-06-04T01:33:16;14.30;99.90
59973;DHT22;55298;-36.624;-64.282;2023-06-04T01:35:44;14.40;99.90
59973;DHT22;55298;-36.624;-64.282;2023-06-04T01:38:13;14.40;99.90
59973;DHT22;55298;-36.624;-64.282;2023-06-04T01:40:41;14.40;99.90
59973;DHT22;55298;-36.624;-64.282;2023-06-04T01:43:09;14.50;99.90
59973;DHT22;55298;-36.624;-64.282;2023-06-04T01:45:37;14.50;99.90
59973;DHT22;55298;-36.624;-64.282;2023-06-04T01:48:05;14.60;99.90
59973;DHT22;55298;-36.624;-64.282;2023-06-04T01:50:34;14.70;99.90
59973;DHT22;55298;-36.624;-64.282;2023-06-04T01:53:02;14.80;99.90
59973;DHT22;55298;-36.624;-64.282;2023-06-04T01:55:30;14.90;99.90
59973;DHT22;55298;-36.624;-64.282;2023-06-04T01:58:00;15.00;99.90
59973;DHT22;55298;-36.624;-64.282;2023-06-04T02:00:28;15.10;99.90
59973;DHT22;55298;-36.624;-64.282;2023-06-04T02:02:56;15.20;99.90
59973;DHT22;55298;-36.624;-64.282;2023-06-04T02:05:26;15.10;99.90
59973;DHT22;55298;-36.624;-64.282;2023-06-04T02:07:53;15.10;99.90
59973;DHT22;55298;-36.624;-64.282;2023-06-04T02:10:21;15.00;99.90
59973;DHT22;55298;-36.624;-64.282;2023-06-04T02:12:59;14.90;99.90
59973;DHT22;55298;-36.624;-64.282;2023-06-04T02:15:29;14.90;99.90
59973;DHT22;55298;-36.624;-64.282;2023-06-04T02:18:00;14.80;99.90
59973;DHT22;55298;-36.624;-64.282;2023-06-04T02:20:44;14.80;99.90
59973;DHT22;55298;-36.624;-64.282;2023-06-04T02:23:13;14.70;99.90
59973;DHT22;55298;-36.624;-64.282;2023-06-04T02:25:41;14.70;99.90
59973;DHT22;55298;-36.624;-64.282;2023-06-04T02:28:11;14.60;99.90
59973;DHT22;55298;-36.624;-64.282;2023-06-04T02:30:39;14.40;99.90
59973;DHT22;55298;-36.624;-64.282;2023-06-04T02:33:07;14.30;99.90
59973;DHT22;55298;-36.624;-64.282;2023-06-04T02:35:36;14.20;99.90
59973;DHT22;55298;-36.624;-64.282;2023-06-04T02:38:05;14.10;99.90
59973;DHT22;55298;-36.624;-64.282;2023-06-04T02:40:33;14.00;99.90
59973;DHT22;55298;-36.624;-64.282;2023-06-04T02:43:00;14.00;99.90
59973;DHT22;55298;-36.624;-64.282;2023-06-04T02:45:28;13.90;99.90
59973;DHT22;55298;-36.624;-64.282;2023-06-04T02:47:57;13.90;99.90
59973;DHT22;55298;-36.624;-64.282;2023-06-04T02:50:25;13.80;99.90
59973;DHT22;55298;-36.624;-64.282;2023-06-04T02:52:52;13.80;99.90
59973;DHT22;55298;-36.624;-64.282;2023-06-04T02:55:20;13.80;99.90
59973;DHT22;55298;-36.624;-64.282;2023-06-04T02:57:48;13.70;99.90
59973;DHT22;55298;-36.624;-64.282;2023-06-04T03:00:18;13.70;99.90
59973;DHT22;55298;-36.624;-64.282;2023-06-04T03:02:47;13.60;99.90
59973;DHT22;55298;-36.624;-64.282;2023-06-04T03:05:16;13.60;99.90
59973;DHT22;55298;-36.624;-64.282;2023-06-04T03:07:46;13.50;99.90
59973;DHT22;55298;-36.624;-64.282;2023-06-04T03:10:14;13.50;99.90
59973;DHT22;55298;-36.624;-64.282;2023-06-04T03:12:43;13.60;99.90
59973;DHT22;55298;-36.624;-64.282;2023-06-04T03:15:11;13.70;99.90
59973;DHT22;55298;-36.624;-64.282;2023-06-04T03:17:39;13.70;99.90
59973;DHT22;55298;-36.624;-64.282;2023-06-04T03:20:07;13.70;99.90
59973;DHT22;55298;-36.624;-64.282;2023-06-04T03:22:36;13.80;99.90
59973;DHT22;55298;-36.624;-64.282;2023-06-04T03:25:04;13.90;99.90
59973;DHT22;55298;-36.624;-64.282;2023-06-04T03:27:32;13.90;99.90
59973;DHT22;55298;-36.624;-64.282;2023-06-04T03:30:00;13.90;99.90
59973;DHT22;55298;-36.624;-64.282;2023-06-04T03:32:28;13.90;99.90
59973;DHT22;55298;-36.624;-64.282;2023-06-04T03:34:56;13.80;99.90
59973;DHT22;55298;-36.624;-64.282;2023-06-04T03:37:24;13.80;99.90
59973;DHT22;55298;-36.624;-64.282;2023-06-04T03:39:52;13.80;99.90
59973;DHT22;55298;-36.624;-64.282;2023-06-04T03:42:20;13.80;99.90
59973;DHT22;55298;-36.624;-64.282;2023-06-04T03:44:48;13.60;99.90
59973;DHT22;55298;-36.624;-64.282;2023-06-04T03:47:15;13.70;99.90
59973;DHT22;55298;-36.624;-64.282;2023-06-04T03:49:44;13.70;99.90
59973;DHT22;55298;-36.624;-64.282;2023-06-04T03:52:12;13.70;99.90
59973;DHT22;55298;-36.624;-64.282;2023-06-04T03:54:40;13.60;99.90
59973;DHT22;55298;-36.624;-64.282;2023-06-04T03:57:08;13.60;99.90
59973;DHT22;55298;-36.624;-64.282;2023-06-04T03:59:36;13.60;99.90
59973;DHT22;55298;-36.624;-64.282;2023-06-04T04:02:04;13.60;99.90
59973;DHT22;55298;-36.624;-64.282;2023-06-04T04:04:33;13.60;99.90
59973;DHT22;55298;-36.624;-64.282;2023-06-04T04:07:00;13.60;99.90
59973;DHT22;55298;-36.624;-64.282;2023-06-04T04:09:28;13.50;99.90
59973;DHT22;55298;-36.624;-64.282;2023-06-04T04:11:56;13.50;99.90
59973;DHT22;55298;-36.624;-64.282;2023-06-04T04:14:24;13.50;99.90
59973;DHT22;55298;-36.624;-64.282;2023-06-04T04:16:51;13.50;99.90
59973;DHT22;55298;-36.624;-64.282;2023-06-04T04:19:19;13.50;99.90
59973;DHT22;55298;-36.624;-64.282;2023-06-04T04:21:47;13.40;99.90
59973;DHT22;55298;-36.624;-64.282;2023-06-04T04:24:29;13.40;99.90
59973;DHT22;55298;-36.624;-64.282;2023-06-04T04:26:57;13.30;99.90
59973;DHT22;55298;-36.624;-64.282;2023-06-04T04:29:25;13.30;99.90
59973;DHT22;55298;-36.624;-64.282;2023-06-04T04:31:54;13.20;99.90
59973;DHT22;55298;-36.624;-64.282;2023-06-04T04:34:27;13.10;99.90
59973;DHT22;55298;-36.624;-64.282;2023-06-04T04:36:55;13.10;99.90
59973;DHT22;55298;-36.624;-64.282;2023-06-04T04:39:24;13.00;99.90
59973;DHT22;55298;-36.624;-64.282;2023-06-04T04:41:53;13.00;99.90
59973;DHT22;55298;-36.624;-64.282;2023-06-04T04:44:21;12.90;99.90
59973;DHT22;55298;-36.624;-64.282;2023-06-04T04:46:49;12.90;99.90
59973;DHT22;55298;-36.624;-64.282;2023-06-04T04:49:17;12.80;99.90
59973;DHT22;55298;-36.624;-64.282;2023-06-04T04:51:45;12.90;99.90
59973;DHT22;55298;-36.624;-64.282;2023-06-04T04:54:12;12.80;99.90
59973;DHT22;55298;-36.624;-64.282;2023-06-04T04:56:40;12.80;99.90
59973;DHT22;55298;-36.624;-64.282;2023-06-04T04:59:08;12.80;99.90
59973;DHT22;55298;-36.624;-64.282;2023-06-04T05:01:36;12.70;99.90
59973;DHT22;55298;-36.624;-64.282;2023-06-04T05:04:03;12.70;99.90
59973;DHT22;55298;-36.624;-64.282;2023-06-04T05:06:31;12.70;99.90
59973;DHT22;55298;-36.624;-64.282;2023-06-04T05:09:00;12.60;99.90
59973;DHT22;55298;-36.624;-64.282;2023-06-04T05:11:28;12.60;99.90
59973;DHT22;55298;-36.624;-64.282;2023-06-04T05:13:55;12.50;99.90
59973;DHT22;55298;-36.624;-64.282;2023-06-04T05:16:23;12.60;99.90
59973;DHT22;55298;-36.624;-64.282;2023-06-04T05:18:52;12.40;99.90
59973;DHT22;55298;-36.624;-64.282;2023-06-04T05:21:19;12.40;99.90
59973;DHT22;55298;-36.624;-64.282;2023-06-04T05:23:47;12.40;99.90
59973;DHT22;55298;-36.624;-64.282;2023-06-04T05:26:15;12.30;99.90
59973;DHT22;55298;-36.624;-64.282;2023-06-04T05:28:42;12.30;99.90
59973;DHT22;55298;-36.624;-64.282;2023-06-04T05:31:10;12.20;99.90
59973;DHT22;55298;-36.624;-64.282;2023-06-04T05:33:40;12.30;99.90
59973;DHT22;55298;-36.624;-64.282;2023-06-04T05:36:07;12.10;99.90
59973;DHT22;55298;-36.624;-64.282;2023-06-04T05:38:35;12.10;99.90
59973;DHT22;55298;-36.624;-64.282;2023-06-04T05:41:03;12.10;99.90
59973;DHT22;55298;-36.624;-64.282;2023-06-04T05:43:31;12.10;99.90
59973;DHT22;55298;-36.624;-64.282;2023-06-04T05:45:58;12.00;99.90
59973;DHT22;55298;-36.624;-64.282;2023-06-04T05:48:26;12.00;99.90
59973;DHT22;55298;-36.624;-64.282;2023-06-04T05:50:54;12.00;99.90
59973;DHT22;55298;-36.624;-64.282;2023-06-04T05:53:22;12.00;99.90
59973;DHT22;55298;-36.624;-64.282;2023-06-04T05:55:50;11.90;99.90
59973;DHT22;55298;-36.624;-64.282;2023-06-04T05:58:17;11.90;99.90
59973;DHT22;55298;-36.624;-64.282;2023-06-04T06:00:45;11.90;99.90
59973;DHT22;55298;-36.624;-64.282;2023-06-04T06:03:14;11.80;99.90
59973;DHT22;55298;-36.624;-64.282;2023-06-04T06:05:44;11.70;99.90
59973;DHT22;55298;-36.624;-64.282;2023-06-04T06:08:13;11.70;99.90
59973;DHT22;55298;-36.624;-64.282;2023-06-04T06:10:41;11.70;99.90
59973;DHT22;55298;-36.624;-64.282;2023-06-04T06:13:09;11.70;99.90
59973;DHT22;55298;-36.624;-64.282;2023-06-04T06:15:36;11.60;99.90
59973;DHT22;55298;-36.624;-64.282;2023-06-04T06:18:05;11.60;99.90
59973;DHT22;55298;-36.624;-64.282;2023-06-04T06:20:33;11.60;99.90
59973;DHT22;55298;-36.624;-64.282;2023-06-04T06:23:07;11.60;99.90
59973;DHT22;55298;-36.624;-64.282;2023-06-04T06:25:35;11.50;99.90
59973;DHT22;55298;-36.624;-64.282;2023-06-04T06:28:04;11.50;99.90
59973;DHT22;55298;-36.624;-64.282;2023-06-04T06:30:31;12.10;99.90
59973;DHT22;55298;-36.624;-64.282;2023-06-04T06:32:59;11.50;99.90
59973;DHT22;55298;-36.624;-64.282;2023-06-04T06:35:27;11.50;99.90
59973;DHT22;55298;-36.624;-64.282;2023-06-04T06:37:55;11.40;99.90
59973;DHT22;55298;-36.624;-64.282;2023-06-04T06:40:23;11.40;99.90
59973;DHT22;55298;-36.624;-64.282;2023-06-04T06:42:50;11.40;99.90
59973;DHT22;55298;-36.624;-64.282;2023-06-04T06:45:20;11.50;99.90
59973;DHT22;55298;-36.624;-64.282;2023-06-04T06:47:48;11.30;99.90
59973;DHT22;55298;-36.624;-64.282;2023-06-04T06:50:15;11.30;99.90
59973;DHT22;55298;-36.624;-64.282;2023-06-04T06:52:43;11.30;99.90
59973;DHT22;55298;-36.624;-64.282;2023-06-04T06:55:11;11.20;99.90
59973;DHT22;55298;-36.624;-64.282;2023-06-04T06:57:38;11.10;99.90
59973;DHT22;55298;-36.624;-64.282;2023-06-04T07:00:07;11.10;99.90
59973;DHT22;55298;-36.624;-64.282;2023-06-04T07:02:35;11.10;99.90
59973;DHT22;55298;-36.624;-64.282;2023-06-04T07:05:03;11.00;99.90
59973;DHT22;55298;-36.624;-64.282;2023-06-04T07:07:31;10.90;99.90
59973;DHT22;55298;-36.624;-64.282;2023-06-04T07:09:58;10.90;99.90
59973;DHT22;55298;-36.624;-64.282;2023-06-04T07:12:26;10.80;99.90
59973;DHT22;55298;-36.624;-64.282;2023-06-04T07:14:54;10.90;99.90
59973;DHT22;55298;-36.624;-64.282;2023-06-04T07:17:23;10.90;99.90
59973;DHT22;55298;-36.624;-64.282;2023-06-04T07:19:50;10.90;99.90
59973;DHT22;55298;-36.624;-64.282;2023-06-04T07:22:18;10.80;99.90
59973;DHT22;55298;-36.624;-64.282;2023-06-04T07:24:45;10.80;99.90
59973;DHT22;55298;-36.624;-64.282;2023-06-04T07:27:14;10.60;99.60
59973;DHT22;55298;-36.624;-64.282;2023-06-04T07:29:44;10.80;99.70
59973;DHT22;55298;-36.624;-64.282;2023-06-04T07:32:12;10.80;99.50
59973;DHT22;55298;-36.624;-64.282;2023-06-04T07:34:40;10.80;99.40
59973;DHT22;55298;-36.624;-64.282;2023-06-04T07:37:08;10.70;99.40
59973;DHT22;55298;-36.624;-64.282;2023-06-04T07:39:37;10.70;99.30
59973;DHT22;55298;-36.624;-64.282;2023-06-04T07:42:05;10.70;99.00
59973;DHT22;55298;-36.624;-64.282;2023-06-04T07:44:34;10.60;98.80
59973;DHT22;55298;-36.624;-64.282;2023-06-04T07:47:02;10.60;98.60
59973;DHT22;55298;-36.624;-64.282;2023-06-04T07:49:30;10.50;98.20
59973;DHT22;55298;-36.624;-64.282;2023-06-04T07:51:58;10.50;98.10
59973;DHT22;55298;-36.624;-64.282;2023-06-04T07:54:26;10.50;97.80
59973;DHT22;55298;-36.624;-64.282;2023-06-04T07:56:53;10.50;97.70
59973;DHT22;55298;-36.624;-64.282;2023-06-04T07:59:24;10.40;97.50
59973;DHT22;55298;-36.624;-64.282;2023-06-04T08:01:51;10.40;97.40
59973;DHT22;55298;-36.624;-64.282;2023-06-04T08:04:19;10.40;97.20
59973;DHT22;55298;-36.624;-64.282;2023-06-04T08:06:47;10.30;97.00
59973;DHT22;55298;-36.624;-64.282;2023-06-04T08:09:16;10.20;97.00
59973;DHT22;55298;-36.624;-64.282;2023-06-04T08:11:44;10.20;96.50
59973;DHT22;55298;-36.624;-64.282;2023-06-04T08:14:12;10.20;95.40
59973;DHT22;55298;-36.624;-64.282;2023-06-04T08:16:41;10.20;93.40
59973;DHT22;55298;-36.624;-64.282;2023-06-04T08:19:09;10.20;92.70
59973;DHT22;55298;-36.624;-64.282;2023-06-04T08:21:37;10.30;91.90
59973;DHT22;55298;-36.624;-64.282;2023-06-04T08:24:05;10.30;91.30
59973;DHT22;55298;-36.624;-64.282;2023-06-04T08:26:33;10.40;91.60
59973;DHT22;55298;-36.624;-64.282;2023-06-04T08:29:03;10.40;90.70
59973;DHT22;55298;-36.624;-64.282;2023-06-04T08:31:31;10.30;90.30
59973;DHT22;55298;-36.624;-64.282;2023-06-04T08:33:59;10.50;90.30
59973;DHT22;55298;-36.624;-64.282;2023-06-04T08:36:28;10.30;90.10
59973;DHT22;55298;-36.624;-64.282;2023-06-04T08:38:55;10.30;90.00
59973;DHT22;55298;-36.624;-64.282;2023-06-04T08:41:39;10.30;89.60
59973;DHT22;55298;-36.624;-64.282;2023-06-04T08:44:10;10.20;88.90
59973;DHT22;55298;-36.624;-64.282;2023-06-04T08:46:39;10.20;88.80
59973;DHT22;55298;-36.624;-64.282;2023-06-04T08:49:07;10.20;88.80
59973;DHT22;55298;-36.624;-64.282;2023-06-04T08:51:37;10.20;89.30
59973;DHT22;55298;-36.624;-64.282;2023-06-04T08:54:06;10.20;90.10
59973;DHT22;55298;-36.624;-64.282;2023-06-04T08:56:35;10.20;89.90
59973;DHT22;55298;-36.624;-64.282;2023-06-04T08:59:05;10.20;89.10
59973;DHT22;55298;-36.624;-64.282;2023-06-04T09:01:35;10.10;87.70
59973;DHT22;55298;-36.624;-64.282;2023-06-04T09:04:06;10.10;86.40
59973;DHT22;55298;-36.624;-64.282;2023-06-04T09:06:35;10.10;85.80
59973;DHT22;55298;-36.624;-64.282;2023-06-04T09:09:09;10.00;84.90
59973;DHT22;55298;-36.624;-64.282;2023-06-04T09:11:46;10.00;85.40
59973;DHT22;55298;-36.624;-64.282;2023-06-04T09:14:16;10.00;84.80
59973;DHT22;55298;-36.624;-64.282;2023-06-04T09:16:47;9.90;84.10
59973;DHT22;55298;-36.624;-64.282;2023-06-04T09:19:17;9.80;83.10
59973;DHT22;55298;-36.624;-64.282;2023-06-04T09:21:54;9.80;82.70
59973;DHT22;55298;-36.624;-64.282;2023-06-04T09:24:24;9.80;82.70
59973;DHT22;55298;-36.624;-64.282;2023-06-04T09:26:52;9.80;79.90
59973;DHT22;55298;-36.624;-64.282;2023-06-04T09:29:21;9.80;80.60
59973;DHT22;55298;-36.624;-64.282;2023-06-04T09:31:58;9.80;80.00
59973;DHT22;55298;-36.624;-64.282;2023-06-04T09:34:29;9.80;80.40
59973;DHT22;55298;-36.624;-64.282;2023-06-04T09:36:57;9.80;77.80
59973;DHT22;55298;-36.624;-64.282;2023-06-04T09:39:25;9.80;78.30
59973;DHT22;55298;-36.624;-64.282;2023-06-04T09:42:01;9.80;77.50
59973;DHT22;55298;-36.624;-64.282;2023-06-04T09:44:31;9.80;76.50
59973;DHT22;55298;-36.624;-64.282;2023-06-04T09:47:12;9.80;75.50
59973;DHT22;55298;-36.624;-64.282;2023-06-04T09:49:47;9.80;75.00
59973;DHT22;55298;-36.624;-64.282;2023-06-04T09:52:17;9.70;75.10
59973;DHT22;55298;-36.624;-64.282;2023-06-04T09:54:48;9.80;75.30
59973;DHT22;55298;-36.624;-64.282;2023-06-04T09:57:17;9.80;75.30
59973;DHT22;55298;-36.624;-64.282;2023-06-04T09:59:46;9.70;75.00
59973;DHT22;55298;-36.624;-64.282;2023-06-04T10:02:20;9.70;75.10
59973;DHT22;55298;-36.624;-64.282;2023-06-04T10:04:54;9.70;75.60
59973;DHT22;55298;-36.624;-64.282;2023-06-04T10:07:26;9.60;75.10
59973;DHT22;55298;-36.624;-64.282;2023-06-04T10:09:53;9.50;75.80
59973;DHT22;55298;-36.624;-64.282;2023-06-04T10:12:31;9.40;76.20
59973;DHT22;55298;-36.624;-64.282;2023-06-04T10:15:07;9.30;76.60
59973;DHT22;55298;-36.624;-64.282;2023-06-04T10:17:38;9.30;76.60
59973;DHT22;55298;-36.624;-64.282;2023-06-04T10:20:08;9.20;77.40
59973;DHT22;55298;-36.624;-64.282;2023-06-04T10:22:37;9.10;77.30
59973;DHT22;55298;-36.624;-64.282;2023-06-04T10:25:05;9.00;78.10
59973;DHT22;55298;-36.624;-64.282;2023-06-04T10:27:34;9.00;78.60
59973;DHT22;55298;-36.624;-64.282;2023-06-04T10:30:04;8.80;78.60
59973;DHT22;55298;-36.624;-64.282;2023-06-04T10:32:32;8.90;79.30
59973;DHT22;55298;-36.624;-64.282;2023-06-04T10:35:04;8.80;79.80
59973;DHT22;55298;-36.624;-64.282;2023-06-04T10:37:34;8.80;80.30
59973;DHT22;55298;-36.624;-64.282;2023-06-04T10:40:02;8.90;81.10
59973;DHT22;55298;-36.624;-64.282;2023-06-04T10:42:42;8.60;81.10
59973;DHT22;55298;-36.624;-64.282;2023-06-04T10:45:10;8.60;81.40
59973;DHT22;55298;-36.624;-64.282;2023-06-04T10:47:38;8.50;81.50
59973;DHT22;55298;-36.624;-64.282;2023-06-04T10:50:09;8.40;82.00
59973;DHT22;55298;-36.624;-64.282;2023-06-04T10:52:38;8.40;82.00
59973;DHT22;55298;-36.624;-64.282;2023-06-04T10:55:07;8.40;82.50
59973;DHT22;55298;-36.624;-64.282;2023-06-04T10:57:35;8.30;82.70
59973;DHT22;55298;-36.624;-64.282;2023-06-04T11:00:04;8.30;82.80
59973;DHT22;55298;-36.624;-64.282;2023-06-04T11:02:37;8.20;82.80
59973;DHT22;55298;-36.624;-64.282;2023-06-04T11:05:06;8.20;83.00
59973;DHT22;55298;-36.624;-64.282;2023-06-04T11:07:45;8.20;83.10
59973;DHT22;55298;-36.624;-64.282;2023-06-04T11:10:15;8.20;82.80
59973;DHT22;55298;-36.624;-64.282;2023-06-04T11:12:45;8.10;82.60
59973;DHT22;55298;-36.624;-64.282;2023-06-04T11:15:14;8.20;82.60
59973;DHT22;55298;-36.624;-64.282;2023-06-04T11:17:51;8.20;82.50
59973;DHT22;55298;-36.624;-64.282;2023-06-04T11:20:21;8.10;82.70
59973;DHT22;55298;-36.624;-64.282;2023-06-04T11:22:58;8.20;82.70
59973;DHT22;55298;-36.624;-64.282;2023-06-04T11:25:30;8.10;82.50
59973;DHT22;55298;-36.624;-64.282;2023-06-04T11:28:00;8.10;82.50
59973;DHT22;55298;-36.624;-64.282;2023-06-04T11:30:28;8.00;82.20
59973;DHT22;55298;-36.624;-64.282;2023-06-04T11:33:05;8.10;81.50
59973;DHT22;55298;-36.624;-64.282;2023-06-04T11:35:41;8.10;81.50
59973;DHT22;55298;-36.624;-64.282;2023-06-04T11:38:09;8.10;80.60
59973;DHT22;55298;-36.624;-64.282;2023-06-04T11:40:37;8.10;80.50
59973;DHT22;55298;-36.624;-64.282;2023-06-04T11:43:08;8.10;80.30
59973;DHT22;55298;-36.624;-64.282;2023-06-04T11:45:37;8.30;80.30
59973;DHT22;55298;-36.624;-64.282;2023-06-04T11:48:06;8.30;79.10
59973;DHT22;55298;-36.624;-64.282;2023-06-04T11:50:34;8.50;76.90
59973;DHT22;55298;-36.624;-64.282;2023-06-04T11:53:02;8.40;77.40
59973;DHT22;55298;-36.624;-64.282;2023-06-04T11:55:31;8.50;76.70
59973;DHT22;55298;-36.624;-64.282;2023-06-04T11:57:59;8.60;76.70
59973;DHT22;55298;-36.624;-64.282;2023-06-04T12:00:28;8.60;75.70
59973;DHT22;55298;-36.624;-64.282;2023-06-04T12:03:05;8.70;75.60
59973;DHT22;55298;-36.624;-64.282;2023-06-04T12:05:33;8.70;75.50
59973;DHT22;55298;-36.624;-64.282;2023-06-04T12:08:09;8.80;76.30
59973;DHT22;55298;-36.624;-64.282;2023-06-04T12:10:39;8.90;76.10
59973;DHT22;55298;-36.624;-64.282;2023-06-04T12:13:08;8.90;75.70
59973;DHT22;55298;-36.624;-64.282;2023-06-04T12:15:36;9.00;75.20
59973;DHT22;55298;-36.624;-64.282;2023-06-04T12:18:04;9.10;74.50
59973;DHT22;55298;-36.624;-64.282;2023-06-04T12:20:40;9.20;74.50
59973;DHT22;55298;-36.624;-64.282;2023-06-04T12:23:19;9.30;73.60
59973;DHT22;55298;-36.624;-64.282;2023-06-04T12:25:50;9.40;72.30
59973;DHT22;55298;-36.624;-64.282;2023-06-04T12:28:18;9.50;73.10
59973;DHT22;55298;-36.624;-64.282;2023-06-04T12:30:48;9.60;73.20
59973;DHT22;55298;-36.624;-64.282;2023-06-04T12:33:16;9.60;71.50
59973;DHT22;55298;-36.624;-64.282;2023-06-04T12:35:45;9.60;72.20
59973;DHT22;55298;-36.624;-64.282;2023-06-04T12:38:13;9.70;72.20
59973;DHT22;55298;-36.624;-64.282;2023-06-04T12:40:40;9.70;71.40
59973;DHT22;55298;-36.624;-64.282;2023-06-04T12:43:08;9.80;70.60
59973;DHT22;55298;-36.624;-64.282;2023-06-04T12:45:36;9.80;71.20
59973;DHT22;55298;-36.624;-64.282;2023-06-04T12:48:04;9.90;70.90
59973;DHT22;55298;-36.624;-64.282;2023-06-04T12:50:32;9.90;71.10
59973;DHT22;55298;-36.624;-64.282;2023-06-04T12:53:00;10.00;70.70
59973;DHT22;55298;-36.624;-64.282;2023-06-04T12:55:29;10.10;70.20
59973;DHT22;55298;-36.624;-64.282;2023-06-04T12:57:57;10.20;70.00
59973;DHT22;55298;-36.624;-64.282;2023-06-04T13:00:24;10.40;68.10
59973;DHT22;55298;-36.624;-64.282;2023-06-04T13:02:52;10.60;66.20
59973;DHT22;55298;-36.624;-64.282;2023-06-04T13:05:20;11.00;64.60
59973;DHT22;55298;-36.624;-64.282;2023-06-04T13:07:47;11.10;64.20
59973;DHT22;55298;-36.624;-64.282;2023-06-04T13:10:15;11.20;64.30
59973;DHT22;55298;-36.624;-64.282;2023-06-04T13:12:44;11.20;64.20
59973;DHT22;55298;-36.624;-64.282;2023-06-04T13:15:12;11.30;63.60
59973;DHT22;55298;-36.624;-64.282;2023-06-04T13:17:40;11.20;63.20
59973;DHT22;55298;-36.624;-64.282;2023-06-04T13:20:08;11.10;63.80
59973;DHT22;55298;-36.624;-64.282;2023-06-04T13:22:37;11.00;63.70
59973;DHT22;55298;-36.624;-64.282;2023-06-04T13:25:05;11.20;63.80
59973;DHT22;55298;-36.624;-64.282;2023-06-04T13:27:33;11.80;63.40
59973;DHT22;55298;-36.624;-64.282;2023-06-04T13:30:01;12.50;59.30
59973;DHT22;55298;-36.624;-64.282;2023-06-04T13:32:29;13.20;57.40
59973;DHT22;55298;-36.624;-64.282;2023-06-04T13:34:57;13.60;56.10
59973;DHT22;55298;-36.624;-64.282;2023-06-04T13:37:25;14.50;55.00
59973;DHT22;55298;-36.624;-64.282;2023-06-04T13:39:53;15.50;52.20
59973;DHT22;55298;-36.624;-64.282;2023-06-04T13:42:20;16.30;49.60
59973;DHT22;55298;-36.624;-64.282;2023-06-04T13:44:48;16.70;48.20
59973;DHT22;55298;-36.624;-64.282;2023-06-04T13:47:17;16.80;47.60
59973;DHT22;55298;-36.624;-64.282;2023-06-04T13:49:46;16.70;47.80
59973;DHT22;55298;-36.624;-64.282;2023-06-04T13:52:14;16.60;46.80
59973;DHT22;55298;-36.624;-64.282;2023-06-04T13:54:41;17.10;46.10
59973;DHT22;55298;-36.624;-64.282;2023-06-04T13:57:09;17.40;44.40
59973;DHT22;55298;-36.624;-64.282;2023-06-04T13:59:39;17.60;41.70
59973;DHT22;55298;-36.624;-64.282;2023-06-04T14:02:07;17.60;41.50
59973;DHT22;55298;-36.624;-64.282;2023-06-04T14:04:37;17.60;41.90
59973;DHT22;55298;-36.624;-64.282;2023-06-04T14:07:04;17.80;41.90
59973;DHT22;55298;-36.624;-64.282;2023-06-04T14:09:33;17.80;41.20
59973;DHT22;55298;-36.624;-64.282;2023-06-04T14:12:03;17.20;41.10
59973;DHT22;55298;-36.624;-64.282;2023-06-04T14:14:30;16.80;42.20
59973;DHT22;55298;-36.624;-64.282;2023-06-04T14:17:04;16.30;41.90
59973;DHT22;55298;-36.624;-64.282;2023-06-04T14:19:33;16.10;42.60
59973;DHT22;55298;-36.624;-64.282;2023-06-04T14:22:02;15.80;42.40
59973;DHT22;55298;-36.624;-64.282;2023-06-04T14:24:30;15.70;43.10
59973;DHT22;55298;-36.624;-64.282;2023-06-04T14:26:59;15.90;43.40
59973;DHT22;55298;-36.624;-64.282;2023-06-04T14:29:27;16.00;43.30
59973;DHT22;55298;-36.624;-64.282;2023-06-04T14:31:56;16.10;42.70
59973;DHT22;55298;-36.624;-64.282;2023-06-04T14:34:23;15.90;41.80
59973;DHT22;55298;-36.624;-64.282;2023-06-04T14:36:51;15.90;42.80
59973;DHT22;55298;-36.624;-64.282;2023-06-04T14:39:22;16.20;42.10
59973;DHT22;55298;-36.624;-64.282;2023-06-04T14:41:50;15.80;41.00
59973;DHT22;55298;-36.624;-64.282;2023-06-04T14:44:19;15.10;42.50
59973;DHT22;55298;-36.624;-64.282;2023-06-04T14:46:48;14.60;44.10
59973;DHT22;55298;-36.624;-64.282;2023-06-04T14:49:17;14.20;44.90
59973;DHT22;55298;-36.624;-64.282;2023-06-04T14:51:45;14.00;45.90
59973;DHT22;55298;-36.624;-64.282;2023-06-04T14:54:13;14.00;46.80
59973;DHT22;55298;-36.624;-64.282;2023-06-04T14:56:41;13.80;47.70
59973;DHT22;55298;-36.624;-64.282;2023-06-04T14:59:14;13.50;47.90
59973;DHT22;55298;-36.624;-64.282;2023-06-04T15:01:43;13.30;49.00
59973;DHT22;55298;-36.624;-64.282;2023-06-04T15:04:13;13.20;48.60